createdAt,value
2017-03-21T00:00:02.848Z,87.21
2017-03-21T00:15:03.063Z,87.35
2017-03-21T00:30:02.630Z,87.42
2017-03-21T00:45:02.350Z,87.4
2017-03-21T01:00:02.249Z,87.22
2017-03-21T01:15:02.888Z,89.77
2017-03-21T01:30:02.308Z,90.32
2017-03-21T01:45:02.542Z,90.63
2017-03-21T02:00:02.285Z,93.72
2017-03-21T02:15:02.263Z,94.91
2017-03-21T02:30:02.705Z,96.89
2017-03-21T02:45:02.421Z,99.27
2017-03-21T03:00:03.152Z,100.62
2017-03-21T03:15:03.079Z,99.96
2017-03-21T03:30:02.969Z,101.04
2017-03-21T03:45:02.679Z,102.8
2017-03-21T04:00:02.504Z,102.75
2017-03-21T04:15:02.526Z,104.07
2017-03-21T04:30:02.505Z,103.97
2017-03-21T04:45:02.271Z,104
2017-03-21T05:00:03.047Z,103.81
2017-03-21T05:15:03.102Z,103.2
2017-03-21T05:30:03.303Z,103.23
2017-03-21T06:00:07.410Z,103.56
2017-03-21T06:15:03.481Z,103.71
2017-03-21T06:30:03.122Z,103.83
2017-03-21T06:45:03.067Z,103.48
2017-03-21T07:00:02.763Z,103.45
2017-03-21T07:15:02.433Z,102.35
2017-03-21T07:30:03.919Z,101.62
2017-03-21T07:45:02.703Z,101.54
2017-03-21T08:00:02.439Z,99.4
2017-03-21T08:15:03.070Z,98.17
2017-03-21T08:30:04.601Z,94.89
2017-03-21T08:45:07.387Z,95.18
2017-03-21T09:00:03.107Z,94.18
2017-03-21T09:15:07.808Z,90.8
2017-03-21T09:30:02.750Z,81.69
2017-03-21T09:45:02.518Z,78.84
2017-03-21T10:00:08.561Z,79.51
2017-03-21T10:15:02.289Z,75.25
2017-03-21T10:30:02.705Z,72.25
2017-03-21T10:45:02.452Z,67.35
2017-03-21T11:00:03.455Z,64.22
2017-03-21T11:15:02.870Z,62.94
2017-03-21T11:30:08.159Z,65.03
2017-03-21T11:45:04.188Z,62.12
2017-03-21T12:00:04.189Z,59.2
2017-03-21T12:15:02.758Z,61.77
2017-03-21T12:30:02.763Z,60.86
2017-03-21T12:45:02.742Z,62.93
2017-03-21T13:00:02.432Z,70.74
2017-03-21T13:15:02.253Z,90.18
2017-03-21T13:30:03.422Z,94.41
2017-03-21T13:45:03.119Z,94.86
2017-03-21T14:00:03.174Z,93.77
2017-03-21T14:15:02.625Z,89.78
2017-03-21T14:30:02.810Z,86.54
2017-03-21T14:45:02.559Z,82.61
2017-03-21T15:00:02.544Z,80
2017-03-21T15:15:02.949Z,81.72
2017-03-21T15:30:03.185Z,75.38
2017-03-21T15:45:03.251Z,68.83
2017-03-21T16:00:08.081Z,66.13
2017-03-21T16:15:02.827Z,58.7
2017-03-21T16:30:02.814Z,57.39
2017-03-21T16:45:03.254Z,56.85
2017-03-21T17:00:03.065Z,58.68
2017-03-21T17:15:02.564Z,55.71
2017-03-21T17:30:02.536Z,55.35
2017-03-21T17:45:02.242Z,51.42
2017-03-21T18:00:03.245Z,54.15
2017-03-21T18:15:03.045Z,54.02
2017-03-21T18:30:02.575Z,54.31
2017-03-21T18:45:02.380Z,54.84
2017-03-21T19:00:03.148Z,56.02
2017-03-21T19:15:03.127Z,57.21
2017-03-21T19:30:03.291Z,58.99
2017-03-21T19:45:02.283Z,60.14
2017-03-21T20:00:03.334Z,61.33
2017-03-21T20:15:03.133Z,62.91
2017-03-21T20:30:02.563Z,64.3
2017-03-21T20:45:02.407Z,65.48
2017-03-21T21:00:02.234Z,66.82
2017-03-21T21:15:03.093Z,67.72
2017-03-21T21:30:03.298Z,68.67
2017-03-21T21:45:03.055Z,69.49
2017-03-21T22:00:03.064Z,72.11
2017-03-21T22:15:02.980Z,74.59
2017-03-21T22:30:02.869Z,76.29
2017-03-21T22:45:02.524Z,77.13
2017-03-21T23:00:02.224Z,77.88
2017-03-21T23:15:02.888Z,79.81
2017-03-21T23:30:02.897Z,79.45
2017-03-21T23:45:02.532Z,79.25
